Hovedside
METAR-TAF:

METAR-TAF

Lufthavner :

Singapore, Singapore

breddegrad: 01-22N, lengdegrad: 103-59E, høyde over havet: 5 m

Gjeldene værobservasjon

Denne rapporten ble laget for 24 minutter siden, klokken 17:00 UTC
Vind 7 kt fra Sørøst
Temperatur 28°C
Luftfuktighet 84%
Trykk 1010 hPa
Sikt 10 km eller mer
Få skyer i en høyde av 1800 ft
Brutte skyer i en høyde av 30000 ft

METAR: WSSS 231700Z 14007KT 9999 FEW018 BKN300 28/25 Q1010 NOSIG

Tid: 01:24 (17:24 UTC)

Varsel

Denne rapporten ble laget for 6 timer og 24 minutter siden, klokken 11:00 UTC
Varsel gyldig fra 23. klokken 12 UTC til 24. klokken 18 UTC
Vind 10 kt fra Sør-sørøst
Sikt 10 km eller mer
Få skyer i en høyde av 1800 ft, Bygeskyer.
Spredte skyer i en høyde av 2000 ft
Midlertidig
fra 24. klokken 02 UTC til 24. klokken 06 UTC
Sikt: 3000 m
Få skyer i en høyde av 1200 ft, Bygeskyer.
Brutte skyer i en høyde av 1500 ft
torden, regn

TAF: WSSS 231100Z 2312/2418 16010KT 9999 FEW018CB SCT020 TEMPO 2402/2406 3000 TSRA FEW012CB BKN015

Værobservasjoner og værvarsel for over 4000 flyplasser (METAR- og TAF-rapporter).

Tilgjengelige stasjoner er representert av de røde og gule prikkene på kartet.

Hold musepekeren over prikken for å se navnet på stasjonen.

Klikk så for å se værobservasjoner og -varsler.

For å forandre kartet kan du klikke på den grønne knappen med svart kryss for å zoome inn, på den grønne knappen med strek for å zoome ut, eller på de grønne pilene for å se tilstøtende kart.


METAR-TAF: